Time;durP1;ratioP1;P1;durP2;ratioP2;P2;SDS_P1;SDS_P2;PMS_P1;PMS_P2;Temp;Humidity;BMP_temperature;BMP_pressure;BME280_temperature;BME280_humidity;BME280_pressure;Samples;Min_cycle;Max_cycle;Signal;HPM_P1;HPM_P2
2021/07/16 00:01:25;;;;;;;5.82;3.15;;;;;23.00;101923.00;;;;5070664;28;20191;-76
2021/07/16 00:03:52;;;;;;;5.75;3.40;;;;;23.00;101921.00;;;;5069704;28;20222;-76
2021/07/16 00:06:19;;;;;;;4.57;3.28;;;;;23.00;101928.00;;;;5073954;28;20203;-76
2021/07/16 00:08:47;;;;;;;4.35;2.95;;;;;23.00;101925.00;;;;5071344;28;20195;-76
2021/07/16 00:11:14;;;;;;;5.60;2.70;;;;;23.00;101929.00;;;;5069914;28;20229;-76
2021/07/16 00:13:41;;;;;;;4.65;2.85;;;;;23.00;101919.00;;;;5076199;28;20203;-76
2021/07/16 00:16:08;;;;;;;5.45;3.03;;;;;23.00;101923.00;;;;5069587;28;20573;-76
2021/07/16 00:18:37;;;;;;;7.18;3.97;;;;;23.00;101927.00;;;;5072767;28;20198;-76
2021/07/16 00:21:04;;;;;;;5.47;3.10;;;;;23.00;101931.00;;;;5088749;28;20221;-76
2021/07/16 00:23:32;;;;;;;5.22;3.72;;;;;23.00;101924.00;;;;5069464;28;20241;-75
2021/07/16 00:26:00;;;;;;;5.03;2.67;;;;;23.00;101930.00;;;;5076879;28;20198;-76
2021/07/16 00:28:27;;;;;;;3.92;3.25;;;;;23.00;101930.00;;;;5073019;28;20195;-76
2021/07/16 00:30:54;;;;;;;6.32;2.92;;;;;23.00;101932.00;;;;5084863;28;20202;-76
2021/07/16 00:33:21;;;;;;;5.28;3.47;;;;;23.00;101929.00;;;;5079267;28;20207;-76
2021/07/16 00:35:50;;;;;;;4.45;2.80;;;;;23.00;101936.00;;;;5069082;28;20223;-76
2021/07/16 00:38:17;;;;;;;5.70;3.50;;;;;23.00;101942.00;;;;5070173;28;20213;-76
2021/07/16 00:40:44;;;;;;;5.32;3.80;;;;;23.00;101939.00;;;;5069501;28;20673;-76
2021/07/16 00:43:11;;;;;;;7.60;3.15;;;;;23.00;101942.00;;;;5069965;28;20226;-76
2021/07/16 00:45:39;;;;;;;4.70;3.42;;;;;23.00;101931.00;;;;5084180;28;20224;-76
2021/07/16 00:48:07;;;;;;;8.68;3.33;;;;;23.00;101928.00;;;;5085182;28;20210;-76
2021/07/16 00:50:36;;;;;;;6.68;2.88;;;;;23.00;101927.00;;;;5069518;28;20195;-76
2021/07/16 00:53:09;;;;;;;5.68;3.63;;;;;23.00;101923.00;;;;5075185;28;20194;-76
2021/07/16 00:55:36;;;;;;;3.97;2.80;;;;;23.00;101925.00;;;;5080057;28;20195;-76
2021/07/16 00:58:05;;;;;;;5.28;2.85;;;;;23.00;101929.00;;;;5071467;28;20195;-76
2021/07/16 01:00:32;;;;;;;4.43;3.38;;;;;23.00;101931.00;;;;5074497;28;20191;-76
2021/07/16 01:02:59;;;;;;;3.60;2.85;;;;;23.10;101929.00;;;;5069381;28;20195;-76
2021/07/16 01:05:27;;;;;;;3.67;2.95;;;;;23.10;101928.00;;;;5070630;28;20191;-76
2021/07/16 01:07:55;;;;;;;3.83;2.92;;;;;23.10;101937.00;;;;5082574;28;20203;-76
2021/07/16 01:10:26;;;;;;;4.85;3.15;;;;;23.00;101932.00;;;;5069233;28;20218;-77
2021/07/16 01:12:55;;;;;;;6.35;3.10;;;;;23.00;101931.00;;;;5074491;28;20264;-76
2021/07/16 01:15:23;;;;;;;3.47;2.78;;;;;23.00;101938.00;;;;5068793;28;20202;-77
2021/07/16 01:17:51;;;;;;;4.00;2.78;;;;;23.10;101943.00;;;;5081194;28;20199;-76
2021/07/16 01:20:22;;;;;;;4.28;2.97;;;;;23.00;101935.00;;;;5069466;28;20562;-76
2021/07/16 01:22:50;;;;;;;5.68;2.97;;;;;23.00;101940.00;;;;5068247;28;20187;-77
2021/07/16 01:25:20;;;;;;;7.90;3.38;;;;;23.00;101937.00;;;;5079346;28;20236;-77
2021/07/16 01:27:49;;;;;;;6.60;3.53;;;;;23.00;101937.00;;;;5080435;28;20585;-76
2021/07/16 01:30:20;;;;;;;8.20;3.00;;;;;23.00;101937.00;;;;5068647;28;20199;-77
2021/07/16 01:32:48;;;;;;;5.20;3.53;;;;;23.00;101937.00;;;;5073227;28;20201;-76
2021/07/16 01:35:17;;;;;;;4.47;3.97;;;;;23.00;101936.00;;;;5084947;28;20215;-77
2021/07/16 01:37:45;;;;;;;5.93;3.08;;;;;23.00;101942.00;;;;5076699;28;20198;-76
2021/07/16 01:40:14;;;;;;;7.88;3.00;;;;;22.90;101941.00;;;;5080739;28;20712;-76
2021/07/16 01:42:46;;;;;;;6.63;3.38;;;;;22.90;101947.00;;;;5068859;28;20191;-77
2021/07/16 01:45:15;;;;;;;4.47;3.75;;;;;22.90;101953.00;;;;5081348;28;20233;-76
2021/07/16 01:47:46;;;;;;;7.85;4.10;;;;;22.90;101950.00;;;;5075506;28;20202;-78
2021/07/16 01:50:14;;;;;;;6.07;3.33;;;;;22.90;101941.00;;;;5068950;28;20211;-78
2021/07/16 01:52:42;;;;;;;5.68;3.30;;;;;22.90;101942.00;;;;5072107;28;20199;-77
2021/07/16 01:55:11;;;;;;;4.72;3.00;;;;;22.80;101940.00;;;;5069104;28;20191;-78
2021/07/16 01:57:38;;;;;;;7.72;3.97;;;;;22.80;101947.00;;;;5073047;28;20202;-77
2021/07/16 02:00:10;;;;;;;5.47;3.70;;;;;22.80;101947.00;;;;5068923;28;20198;-77
2021/07/16 02:02:47;;;;;;;5.05;3.10;;;;;22.70;101950.00;;;;5082470;28;20202;-77
2021/07/16 02:05:15;;;;;;;5.15;3.40;;;;;22.80;101940.00;;;;5074176;28;20230;-77
2021/07/16 02:07:42;;;;;;;16.73;3.72;;;;;22.80;101942.00;;;;5070696;28;20256;-77
2021/07/16 02:10:10;;;;;;;9.38;4.18;;;;;22.80;101941.00;;;;5078340;28;20193;-77
2021/07/16 02:12:38;;;;;;;7.15;3.55;;;;;22.80;101947.00;;;;5068729;28;20219;-77
2021/07/16 02:15:11;;;;;;;7.47;3.28;;;;;22.70;101945.00;;;;5067909;28;20211;-78
2021/07/16 02:17:38;;;;;;;5.60;3.10;;;;;22.70;101946.00;;;;5069036;28;20289;-77
2021/07/16 02:20:17;;;;;;;8.20;4.20;;;;;22.70;101945.00;;;;5072556;28;21096;-77
2021/07/16 02:22:44;;;;;;;8.65;3.72;;;;;22.70;101946.00;;;;5072290;28;20202;-77
2021/07/16 02:25:14;;;;;;;8.27;3.65;;;;;22.70;101941.00;;;;5072917;28;20219;-78
2021/07/16 02:27:41;;;;;;;8.85;3.83;;;;;22.70;101948.00;;;;5084261;28;20201;-77
2021/07/16 02:30:11;;;;;;;5.90;3.53;;;;;22.60;101943.00;;;;5072869;28;20214;-74
2021/07/16 02:32:38;;;;;;;4.45;3.15;;;;;22.60;101946.00;;;;5072734;28;20253;-77
2021/07/16 02:35:07;;;;;;;6.63;3.45;;;;;22.60;101948.00;;;;5090662;28;20249;-77
2021/07/16 02:37:34;;;;;;;7.03;3.33;;;;;22.60;101952.00;;;;5086746;28;20202;-77
2021/07/16 02:40:01;;;;;;;9.10;3.60;;;;;22.60;101953.00;;;;5087010;28;20285;-77
2021/07/16 02:42:29;;;;;;;6.07;3.25;;;;;22.60;101956.00;;;;5091476;28;20206;-78
2021/07/16 02:44:56;;;;;;;7.65;2.88;;;;;22.60;101956.00;;;;5071784;28;20214;-77
2021/07/16 02:47:25;;;;;;;9.23;3.33;;;;;22.50;101943.00;;;;5072108;28;20658;-78
2021/07/16 02:49:52;;;;;;;11.50;3.83;;;;;22.60;101950.00;;;;5077234;28;20210;-78
2021/07/16 02:52:19;;;;;;;8.27;2.92;;;;;22.50;101953.00;;;;5080089;28;20657;-78
2021/07/16 02:54:46;;;;;;;6.05;3.47;;;;;22.50;101958.00;;;;5071672;28;20202;-77
2021/07/16 02:57:13;;;;;;;7.15;3.15;;;;;22.50;101956.00;;;;5072362;28;20199;-77
2021/07/16 02:59:41;;;;;;;7.72;3.53;;;;;22.50;101952.00;;;;5071480;28;20202;-78
2021/07/16 03:02:08;;;;;;;11.32;3.22;;;;;22.50;101949.00;;;;5072018;28;20202;-77
2021/07/16 03:04:36;;;;;;;6.78;3.20;;;;;22.50;101959.00;;;;5081664;28;20257;-77
2021/07/16 03:07:04;;;;;;;5.32;3.15;;;;;22.50;101964.00;;;;5074954;28;20231;-77
2021/07/16 03:09:34;;;;;;;6.88;3.25;;;;;22.50;101959.00;;;;5071919;28;20222;-77
2021/07/16 03:12:03;;;;;;;8.52;3.13;;;;;22.50;101961.00;;;;5074696;28;20718;-77
2021/07/16 03:14:30;;;;;;;7.20;3.67;;;;;22.50;101956.00;;;;5071580;28;20916;-77
2021/07/16 03:16:57;;;;;;;10.02;3.28;;;;;22.50;101959.00;;;;5078972;28;20672;-77
2021/07/16 03:19:25;;;;;;;4.72;2.83;;;;;22.40;101957.00;;;;5070806;28;20202;-77
2021/07/16 03:21:53;;;;;;;4.57;3.03;;;;;22.40;101960.00;;;;5071610;28;20191;-77
2021/07/16 03:24:21;;;;;;;7.68;3.40;;;;;22.40;101962.00;;;;5071074;28;20223;-77
2021/07/16 03:26:48;;;;;;;4.95;3.25;;;;;22.40;101964.00;;;;5082699;28;20206;-77
2021/07/16 03:29:15;;;;;;;6.00;3.40;;;;;22.40;101953.00;;;;5080650;28;20203;-78
2021/07/16 03:31:42;;;;;;;6.80;3.05;;;;;22.40;101956.00;;;;5084735;28;20207;-77
2021/07/16 03:34:10;;;;;;;6.97;3.25;;;;;22.40;101956.00;;;;5078061;28;20195;-77
2021/07/16 03:36:37;;;;;;;5.50;2.83;;;;;22.40;101960.00;;;;5074632;28;20222;-77
2021/07/16 03:39:06;;;;;;;4.90;2.72;;;;;22.40;101965.00;;;;5080588;28;20198;-77
2021/07/16 03:41:37;;;;;;;7.65;3.20;;;;;22.40;101966.00;;;;5080278;28;20198;-77
2021/07/16 03:44:04;;;;;;;6.93;3.15;;;;;22.40;101969.00;;;;5075230;28;20190;-77
2021/07/16 03:46:31;;;;;;;5.70;2.80;;;;;22.40;101966.00;;;;5084373;28;20229;-78
2021/07/16 03:48:59;;;;;;;6.63;3.60;;;;;22.40;101970.00;;;;5071003;28;20199;-77
2021/07/16 03:51:27;;;;;;;4.18;2.47;;;;;22.40;101974.00;;;;5070831;28;20195;-77
2021/07/16 03:53:54;;;;;;;5.63;2.80;;;;;22.40;101973.00;;;;5070547;28;20195;-77
2021/07/16 03:56:23;;;;;;;4.22;3.30;;;;;22.40;101973.00;;;;5072807;28;20195;-77
2021/07/16 03:58:50;;;;;;;6.05;2.90;;;;;22.40;101964.00;;;;5076244;28;20195;-77
2021/07/16 04:01:17;;;;;;;5.35;2.75;;;;;22.40;101971.00;;;;5081462;28;20190;-77
2021/07/16 04:03:45;;;;;;;5.32;2.53;;;;;22.40;101976.00;;;;5073004;28;20198;-77
2021/07/16 04:06:12;;;;;;;4.97;3.10;;;;;22.40;101977.00;;;;5070076;28;20222;-77
2021/07/16 04:08:40;;;;;;;8.23;2.95;;;;;22.40;101971.00;;;;5069433;28;20194;-77
2021/07/16 04:11:07;;;;;;;8.70;2.88;;;;;22.40;101972.00;;;;5085053;28;20208;-77
2021/07/16 04:13:36;;;;;;;7.15;2.80;;;;;22.40;101975.00;;;;5088202;28;20236;-77
2021/07/16 04:16:03;;;;;;;5.20;2.60;;;;;22.40;101972.00;;;;5082972;28;20199;-77
2021/07/16 04:18:30;;;;;;;5.65;2.60;;;;;22.40;101974.00;;;;5071425;28;21755;-77
2021/07/16 04:20:58;;;;;;;3.65;2.50;;;;;22.30;101977.00;;;;5072403;28;20197;-77
2021/07/16 04:23:25;;;;;;;7.15;3.13;;;;;22.40;101978.00;;;;5090637;28;20205;-78
2021/07/16 04:25:52;;;;;;;3.85;2.40;;;;;22.40;101971.00;;;;5083841;28;20222;-77
2021/07/16 04:28:19;;;;;;;5.18;2.58;;;;;22.30;101973.00;;;;5089107;28;20206;-77
2021/07/16 04:30:48;;;;;;;5.80;2.67;;;;;22.30;101981.00;;;;5084508;28;20603;-77
2021/07/16 04:33:15;;;;;;;9.00;2.63;;;;;22.40;101980.00;;;;5076448;28;20205;-77
2021/07/16 04:35:42;;;;;;;8.23;2.83;;;;;22.30;101976.00;;;;5070547;28;20237;-77
2021/07/16 04:38:10;;;;;;;6.95;2.58;;;;;22.40;101982.00;;;;5072446;28;20688;-77
2021/07/16 04:40:37;;;;;;;7.20;3.15;;;;;22.40;101973.00;;;;5082240;28;20191;-79
2021/07/16 04:43:04;;;;;;;5.53;2.75;;;;;22.30;101974.00;;;;5079859;28;20194;-78
2021/07/16 04:45:37;;;;;;;5.97;2.90;;;;;22.30;101969.00;;;;5086118;28;20214;-78
2021/07/16 04:48:06;;;;;;;7.97;2.72;;;;;22.30;101976.00;;;;5085662;28;20191;-78
2021/07/16 04:50:34;;;;;;;3.38;2.25;;;;;22.30;101984.00;;;;5083620;28;20190;-78
2021/07/16 04:53:01;;;;;;;5.18;2.72;;;;;22.30;101977.00;;;;5088733;28;20603;-78
2021/07/16 04:55:29;;;;;;;8.27;2.83;;;;;22.30;101990.00;;;;5084516;28;20226;-78
2021/07/16 04:57:56;;;;;;;5.28;2.33;;;;;22.30;101990.00;;;;5080724;28;20220;-79
2021/07/16 05:00:23;;;;;;;5.25;2.35;;;;;22.30;101990.00;;;;5084244;28;20198;-78
2021/07/16 05:02:50;;;;;;;6.32;2.78;;;;;22.30;101986.00;;;;5087873;28;20190;-78
2021/07/16 05:05:19;;;;;;;4.00;2.03;;;;;22.30;101989.00;;;;5088439;28;20222;-78
2021/07/16 05:07:46;;;;;;;6.15;2.08;;;;;22.30;101988.00;;;;5079806;28;20195;-78
2021/07/16 05:10:14;;;;;;;8.60;2.90;;;;;22.30;101993.00;;;;5080812;28;20209;-78
2021/07/16 05:12:41;;;;;;;6.50;2.47;;;;;22.30;101997.00;;;;5086725;28;20210;-78
2021/07/16 05:15:10;;;;;;;7.95;2.47;;;;;22.30;102004.00;;;;5089561;28;20198;-78
2021/07/16 05:17:38;;;;;;;8.98;2.80;;;;;22.30;102020.00;;;;5086418;28;20206;-78
2021/07/16 05:20:07;;;;;;;5.95;2.38;;;;;22.30;102011.00;;;;5088844;28;20206;-78
2021/07/16 05:22:35;;;;;;;4.75;2.13;;;;;22.30;102009.00;;;;5074729;28;20194;-78
2021/07/16 05:25:04;;;;;;;7.38;2.22;;;;;22.30;102012.00;;;;5081602;28;20213;-78
2021/07/16 05:27:31;;;;;;;7.20;2.60;;;;;22.30;102008.00;;;;5088827;28;20194;-78
2021/07/16 05:29:59;;;;;;;4.75;2.33;;;;;22.40;102013.00;;;;5082915;28;20194;-77
2021/07/16 05:32:26;;;;;;;6.15;2.70;;;;;22.40;102013.00;;;;5071808;28;20199;-77
2021/07/16 05:34:53;;;;;;;10.15;3.55;;;;;22.40;102014.00;;;;5069507;28;20227;-77
2021/07/16 05:37:20;;;;;;;5.50;2.33;;;;;22.40;102018.00;;;;5072367;28;20203;-77
2021/07/16 05:39:49;;;;;;;5.25;2.30;;;;;22.40;102019.00;;;;5071783;28;22220;-77
2021/07/16 05:42:17;;;;;;;8.95;2.92;;;;;22.40;102023.00;;;;5075389;28;20225;-77
2021/07/16 05:44:45;;;;;;;4.93;1.83;;;;;22.50;102026.00;;;;5074525;28;20218;-77
2021/07/16 05:47:12;;;;;;;6.55;2.47;;;;;22.50;102025.00;;;;5078329;28;20289;-79
2021/07/16 05:49:39;;;;;;;6.75;2.92;;;;;22.50;102021.00;;;;5075289;28;20203;-78
2021/07/16 05:52:07;;;;;;;4.90;2.05;;;;;22.50;102023.00;;;;5068310;28;20203;-78
2021/07/16 05:54:34;;;;;;;5.13;2.22;;;;;22.50;102014.00;;;;5071400;28;20202;-78
2021/07/16 05:57:03;;;;;;;7.22;2.45;;;;;22.50;102015.00;;;;5068465;28;20684;-78
2021/07/16 05:59:30;;;;;;;6.53;2.25;;;;;22.50;102020.00;;;;5073839;28;20201;-78
2021/07/16 06:01:59;;;;;;;9.43;2.58;;;;;22.50;102021.00;;;;5074729;28;20656;-78
2021/07/16 06:04:26;;;;;;;4.38;2.28;;;;;22.50;102019.00;;;;5071422;28;20194;-77
2021/07/16 06:06:53;;;;;;;6.72;2.58;;;;;22.50;102022.00;;;;5070756;28;20661;-79
2021/07/16 06:09:21;;;;;;;7.32;1.95;;;;;22.50;102019.00;;;;5071215;28;20206;-79
2021/07/16 06:11:48;;;;;;;4.20;2.00;;;;;22.50;102037.00;;;;5084819;28;20206;-79
2021/07/16 06:14:18;;;;;;;9.57;2.50;;;;;22.50;102032.00;;;;5075134;28;20202;-80
2021/07/16 06:16:49;;;;;;;5.25;2.58;;;;;22.60;102033.00;;;;5081720;28;20210;-80
2021/07/16 06:19:16;;;;;;;8.15;2.15;;;;;22.60;102041.00;;;;5086167;28;20201;-80
2021/07/16 06:21:43;;;;;;;9.95;2.63;;;;;22.60;102045.00;;;;5080017;28;20207;-79
2021/07/16 06:24:11;;;;;;;8.88;2.53;;;;;22.60;102045.00;;;;5084347;28;20190;-80
2021/07/16 06:26:38;;;;;;;26.33;2.75;;;;;22.60;102056.00;;;;5083381;28;20226;-80
2021/07/16 06:29:06;;;;;;;7.72;2.25;;;;;22.60;102049.00;;;;5083649;28;20205;-79
2021/07/16 06:31:35;;;;;;;5.75;2.67;;;;;22.60;102054.00;;;;5079829;28;20197;-80
2021/07/16 06:34:03;;;;;;;6.43;2.60;;;;;22.60;102055.00;;;;5085985;28;20198;-79
2021/07/16 06:36:31;;;;;;;4.28;1.95;;;;;22.60;102051.00;;;;5087485;28;20225;-80
2021/07/16 06:38:58;;;;;;;8.38;2.97;;;;;22.60;102055.00;;;;5087485;28;20194;-78
2021/07/16 06:41:25;;;;;;;3.70;1.73;;;;;22.60;102056.00;;;;5087266;28;20209;-78
2021/07/16 06:43:52;;;;;;;4.80;1.85;;;;;22.60;102058.00;;;;5086886;28;20202;-78
2021/07/16 06:46:19;;;;;;;7.43;2.53;;;;;22.60;102057.00;;;;5087579;28;20711;-78
2021/07/16 06:48:48;;;;;;;11.13;2.83;;;;;22.60;102060.00;;;;5087440;28;20191;-78
2021/07/16 06:51:17;;;;;;;8.60;2.33;;;;;22.70;102054.00;;;;5082130;28;20707;-78
2021/07/16 06:53:44;;;;;;;4.22;1.77;;;;;22.70;102053.00;;;;5080134;28;20203;-78
2021/07/16 06:56:12;;;;;;;6.47;2.03;;;;;22.70;102052.00;;;;5075593;28;20202;-78
2021/07/16 06:58:39;;;;;;;7.78;2.00;;;;;22.80;102054.00;;;;5082682;28;20206;-78
2021/07/16 07:01:06;;;;;;;11.52;2.40;;;;;22.80;102050.00;;;;5087366;28;20195;-78
2021/07/16 07:03:33;;;;;;;6.35;1.95;;;;;22.80;102059.00;;;;5070933;28;20194;-79
2021/07/16 07:06:04;;;;;;;6.38;2.28;;;;;22.80;102062.00;;;;5091890;28;20221;-78
2021/07/16 07:08:31;;;;;;;9.02;2.90;;;;;22.80;102067.00;;;;5074645;28;20318;-77
2021/07/16 07:10:58;;;;;;;5.38;2.45;;;;;22.80;102072.00;;;;5073866;28;20191;-79
2021/07/16 07:13:26;;;;;;;12.30;3.08;;;;;22.80;102080.00;;;;5070813;28;20642;-79
2021/07/16 07:15:53;;;;;;;6.35;1.98;;;;;22.80;102083.00;;;;5070551;28;20199;-78
2021/07/16 07:18:20;;;;;;;5.82;2.45;;;;;22.80;102078.00;;;;5071105;28;20214;-78
2021/07/16 07:20:47;;;;;;;4.40;1.70;;;;;22.80;102081.00;;;;5070646;28;20699;-78
2021/07/16 07:23:16;;;;;;;7.45;2.92;;;;;22.80;102084.00;;;;5070901;28;20225;-78
2021/07/16 07:25:43;;;;;;;9.15;2.85;;;;;22.80;102088.00;;;;5089868;28;20226;-79
2021/07/16 07:28:10;;;;;;;7.85;2.28;;;;;22.80;102087.00;;;;5091207;28;20202;-79
2021/07/16 07:30:38;;;;;;;9.55;2.40;;;;;22.80;102093.00;;;;5090683;28;20240;-79
2021/07/16 07:33:06;;;;;;;7.57;2.00;;;;;22.80;102096.00;;;;5089902;28;20194;-78
2021/07/16 07:35:34;;;;;;;8.77;2.17;;;;;22.80;102102.00;;;;5098833;28;20213;-79
2021/07/16 07:38:01;;;;;;;7.43;2.20;;;;;22.90;102095.00;;;;5111568;28;20521;-79
2021/07/16 07:40:31;;;;;;;12.10;2.28;;;;;22.90;102098.00;;;;5108679;28;20197;-78
2021/07/16 07:43:00;;;;;;;6.47;2.20;;;;;22.90;102103.00;;;;5076029;28;20203;-78
2021/07/16 07:45:27;;;;;;;6.90;1.73;;;;;22.90;102098.00;;;;5070570;28;20219;-78
2021/07/16 07:47:55;;;;;;;5.70;1.70;;;;;22.90;102112.00;;;;5070244;28;20202;-79
2021/07/16 07:50:22;;;;;;;7.40;2.50;;;;;22.90;102107.00;;;;5070937;28;20622;-79
2021/07/16 07:52:51;;;;;;;7.22;2.15;;;;;22.80;102101.00;;;;5071100;28;20202;-79
2021/07/16 07:55:21;;;;;;;6.07;2.17;;;;;22.80;102106.00;;;;5071630;28;20293;-79
2021/07/16 07:57:51;;;;;;;13.13;2.45;;;;;22.90;102111.00;;;;5074058;28;20213;-79
2021/07/16 08:00:20;;;;;;;9.85;2.00;;;;;22.90;102112.00;;;;5091144;28;20219;-78
2021/07/16 08:02:48;;;;;;;6.80;2.20;;;;;22.90;102110.00;;;;5091045;28;20198;-79
2021/07/16 08:05:15;;;;;;;11.10;2.67;;;;;22.90;102110.00;;;;5091037;28;20210;-79
2021/07/16 08:07:43;;;;;;;10.95;2.17;;;;;22.90;102115.00;;;;5090131;28;20579;-79
2021/07/16 08:10:12;;;;;;;8.88;2.60;;;;;22.90;102119.00;;;;5091061;28;20209;-79
2021/07/16 08:12:41;;;;;;;6.60;1.98;;;;;22.90;102119.00;;;;5090202;28;20221;-79
2021/07/16 08:15:13;;;;;;;6.85;2.72;;;;;22.90;102126.00;;;;5090013;28;20667;-80
2021/07/16 08:17:40;;;;;;;9.90;3.03;;;;;23.00;102121.00;;;;5089238;28;20202;-80
2021/07/16 08:20:09;;;;;;;9.48;2.35;;;;;23.00;102118.00;;;;5090592;28;20198;-79
2021/07/16 08:22:37;;;;;;;7.45;2.80;;;;;23.00;102121.00;;;;5090174;28;20202;-79
2021/07/16 08:25:05;;;;;;;9.57;2.50;;;;;23.00;102127.00;;;;5090016;28;20202;-77
2021/07/16 08:27:33;;;;;;;10.77;2.85;;;;;23.00;102128.00;;;;5090471;28;20253;-77
2021/07/16 08:30:00;;;;;;;10.70;2.88;;;;;23.00;102128.00;;;;5090648;28;20202;-78
2021/07/16 08:32:29;;;;;;;9.10;2.70;;;;;23.00;102121.00;;;;5088762;28;20577;-79
2021/07/16 08:34:56;;;;;;;11.75;3.03;;;;;23.00;102135.00;;;;5074377;28;20239;-78
2021/07/16 08:37:23;;;;;;;7.43;2.97;;;;;23.00;102135.00;;;;5069984;28;20210;-78
2021/07/16 08:39:50;;;;;;;10.68;2.72;;;;;23.10;102137.00;;;;5073327;28;20198;-79
2021/07/16 08:42:18;;;;;;;9.02;2.97;;;;;23.10;102136.00;;;;5090271;28;20199;-79
2021/07/16 08:44:46;;;;;;;8.77;3.17;;;;;23.10;102136.00;;;;5089472;28;20209;-78
2021/07/16 08:47:14;;;;;;;7.07;2.67;;;;;23.10;102140.00;;;;5090273;28;20256;-77
2021/07/16 08:49:43;;;;;;;8.45;2.50;;;;;23.10;102137.00;;;;5078611;28;20210;-77
2021/07/16 08:52:11;;;;;;;6.35;2.63;;;;;23.20;102141.00;;;;5070155;28;20195;-76
2021/07/16 08:54:44;;;;;;;9.25;2.45;;;;;23.20;102143.00;;;;5069733;28;20205;-79
2021/07/16 08:57:14;;;;;;;7.28;2.10;;;;;23.20;102146.00;;;;5069476;28;20237;-76
2021/07/16 08:59:41;;;;;;;9.85;2.80;;;;;23.20;102149.00;;;;5069108;28;20195;-76
2021/07/16 09:02:10;;;;;;;6.57;2.78;;;;;23.20;102145.00;;;;5069870;28;20611;-76
2021/07/16 09:04:39;;;;;;;10.35;3.53;;;;;23.30;102146.00;;;;5069215;28;20195;-76
2021/07/16 09:07:08;;;;;;;6.43;2.70;;;;;23.30;102145.00;;;;5070100;28;20227;-76
2021/07/16 09:09:40;;;;;;;7.95;2.83;;;;;23.30;102147.00;;;;5077742;28;20198;-76
2021/07/16 09:12:10;;;;;;;8.93;2.63;;;;;23.40;102150.00;;;;5088846;28;20699;-77
2021/07/16 09:14:37;;;;;;;6.57;2.20;;;;;23.40;102145.00;;;;5089697;28;20209;-76
2021/07/16 09:17:09;;;;;;;14.07;2.95;;;;;23.40;102151.00;;;;5090098;28;20198;-76
2021/07/16 09:19:38;;;;;;;8.40;2.83;;;;;23.50;102160.00;;;;5088836;28;20610;-76
2021/07/16 09:22:12;;;;;;;11.30;2.50;;;;;23.50;102163.00;;;;5089330;28;20205;-76
2021/07/16 09:24:41;;;;;;;7.65;2.72;;;;;23.50;102163.00;;;;5088542;28;20202;-76
2021/07/16 09:27:31;;;;;;;13.77;2.50;;;;;23.40;102168.00;;;;5088748;28;20226;-77
2021/07/16 09:30:12;;;;;;;9.75;3.13;;;;;23.50;102174.00;;;;5089450;28;20198;-77
2021/07/16 09:32:40;;;;;;;6.25;2.35;;;;;23.60;102168.00;;;;5089274;28;20206;-77
2021/07/16 09:35:08;;;;;;;6.68;2.50;;;;;23.60;102169.00;;;;5088618;28;20279;-77
2021/07/16 09:37:49;;;;;;;6.40;2.70;;;;;23.50;102175.00;;;;5088994;28;20587;-76
2021/07/16 09:40:24;;;;;;;7.28;2.00;;;;;23.50;102171.00;;;;5087940;28;20683;-76
2021/07/16 09:42:58;;;;;;;10.77;2.35;;;;;23.60;102169.00;;;;5089643;28;20209;-77
2021/07/16 09:45:25;;;;;;;5.03;2.58;;;;;23.60;102177.00;;;;5088937;28;20289;-76
2021/07/16 09:47:53;;;;;;;11.45;2.88;;;;;23.60;102172.00;;;;5088783;28;20226;-77
2021/07/16 09:50:25;;;;;;;6.88;2.53;;;;;23.60;102161.00;;;;5089180;28;20196;-76
2021/07/16 09:53:14;;;;;;;10.98;2.65;;;;;23.50;102155.00;;;;5077405;28;20256;-76
2021/07/16 09:55:42;;;;;;;8.25;2.85;;;;;23.70;102156.00;;;;5080803;28;20197;-76
2021/07/16 09:58:24;;;;;;;8.23;2.88;;;;;23.60;102165.00;;;;5083494;28;20211;-77
2021/07/16 10:00:52;;;;;;;8.88;2.90;;;;;23.70;102159.00;;;;5078734;28;20225;-76
2021/07/16 10:03:21;;;;;;;9.25;2.72;;;;;23.70;102167.00;;;;5082742;28;20202;-76
2021/07/16 10:05:50;;;;;;;7.25;2.20;;;;;23.70;102166.00;;;;5076874;28;20206;-77
2021/07/16 10:08:19;;;;;;;8.85;2.53;;;;;23.80;102169.00;;;;5086859;28;20570;-77
2021/07/16 10:10:49;;;;;;;6.03;2.20;;;;;23.80;102170.00;;;;5077718;28;20203;-77
2021/07/16 10:13:17;;;;;;;7.97;2.60;;;;;23.80;102177.00;;;;5068017;28;20246;-77
2021/07/16 10:15:46;;;;;;;14.13;2.80;;;;;23.90;102182.00;;;;5067596;28;20281;-77
2021/07/16 10:18:13;;;;;;;7.43;2.28;;;;;23.90;102178.00;;;;5082039;28;20574;-77
2021/07/16 10:20:40;;;;;;;8.32;2.33;;;;;24.00;102180.00;;;;5077534;28;20195;-77
2021/07/16 10:23:10;;;;;;;6.18;1.60;;;;;24.00;102186.00;;;;5071791;28;20195;-76
2021/07/16 10:25:39;;;;;;;13.48;3.20;;;;;24.10;102183.00;;;;5068121;28;20191;-76
2021/07/16 10:28:07;;;;;;;11.73;2.85;;;;;24.10;102176.00;;;;5079298;28;20699;-76
2021/07/16 10:30:40;;;;;;;5.38;2.20;;;;;24.10;102184.00;;;;5084002;28;20202;-77
2021/07/16 10:33:07;;;;;;;10.18;2.88;;;;;24.20;102185.00;;;;5071472;28;20198;-75
2021/07/16 10:35:39;;;;;;;6.95;2.35;;;;;24.20;102177.00;;;;5082344;28;20222;-76
2021/07/16 10:38:30;;;;;;;7.18;2.78;;;;;24.20;102182.00;;;;5107761;28;20220;-74
2021/07/16 10:41:00;;;;;;;7.80;2.10;;;;;24.30;102179.00;;;;5088350;28;20214;-74
2021/07/16 10:43:42;;;;;;;10.23;2.72;;;;;24.30;102188.00;;;;5072566;28;20605;-75
2021/07/16 10:46:31;;;;;;;6.07;2.13;;;;;24.30;102187.00;;;;5071952;28;20203;-75
2021/07/16 10:48:58;;;;;;;9.68;2.17;;;;;24.50;102190.00;;;;5075043;28;20232;-75
2021/07/16 10:51:28;;;;;;;8.43;2.05;;;;;24.50;102192.00;;;;5071051;28;20820;-75
2021/07/16 10:53:55;;;;;;;10.40;2.22;;;;;24.60;102193.00;;;;5071586;28;20199;-75
2021/07/16 10:56:38;;;;;;;10.00;2.03;;;;;24.50;102197.00;;;;5071520;28;20226;-74
2021/07/16 10:59:06;;;;;;;10.10;2.60;;;;;24.60;102198.00;;;;5071451;28;20199;-75
2021/07/16 11:01:37;;;;;;;6.47;2.38;;;;;24.60;102198.00;;;;5076875;28;20195;-75
2021/07/16 11:04:07;;;;;;;8.82;2.05;;;;;24.60;102197.00;;;;5071509;28;20669;-76
2021/07/16 11:06:55;;;;;;;13.45;3.05;;;;;24.50;102201.00;;;;5082437;28;20580;-75
2021/07/16 11:09:43;;;;;;;13.20;2.30;;;;;24.50;102204.00;;;;5080482;28;20297;-75
2021/07/16 11:12:26;;;;;;;6.65;2.30;;;;;24.50;102198.00;;;;5081145;28;20227;-76
2021/07/16 11:14:55;;;;;;;10.27;2.67;;;;;24.60;102196.00;;;;5078243;28;20264;-76
2021/07/16 11:17:35;;;;;;;8.07;2.38;;;;;24.60;102194.00;;;;5070772;28;20688;-76
2021/07/16 11:20:15;;;;;;;4.55;2.20;;;;;24.60;102192.00;;;;5070423;28;20198;-75
2021/07/16 11:23:00;;;;;;;6.53;2.78;;;;;24.70;102187.00;;;;5072324;28;20205;-76
2021/07/16 11:25:28;;;;;;;10.55;2.65;;;;;24.90;102190.00;;;;5079259;28;20597;-75
2021/07/16 11:27:57;;;;;;;8.50;3.00;;;;;25.00;102189.00;;;;5079117;28;20229;-75
2021/07/16 11:30:26;;;;;;;8.05;2.65;;;;;25.00;102197.00;;;;5071123;28;20573;-75
2021/07/16 11:33:00;;;;;;;7.00;2.17;;;;;25.10;102200.00;;;;5090892;28;20656;-77
2021/07/16 11:35:28;;;;;;;5.43;2.38;;;;;25.20;102195.00;;;;5073381;28;20218;-78
2021/07/16 11:37:55;;;;;;;7.90;2.80;;;;;25.30;102197.00;;;;5080446;28;20191;-78
2021/07/16 11:40:24;;;;;;;8.55;2.30;;;;;25.40;102191.00;;;;5073902;28;20203;-77
2021/07/16 11:42:52;;;;;;;8.82;2.58;;;;;25.50;102187.00;;;;5070855;28;20611;-77
2021/07/16 11:45:22;;;;;;;8.27;2.88;;;;;25.60;102195.00;;;;5085266;28;20206;-77
2021/07/16 11:47:50;;;;;;;9.50;2.85;;;;;25.70;102192.00;;;;5081204;28;20226;-77
2021/07/16 11:50:18;;;;;;;8.65;2.97;;;;;25.80;102194.00;;;;5071079;28;20203;-76
2021/07/16 11:52:47;;;;;;;6.90;2.60;;;;;25.90;102182.00;;;;5071322;28;20567;-75
2021/07/16 11:55:16;;;;;;;6.57;2.40;;;;;26.00;102187.00;;;;5083350;28;20634;-76
2021/07/16 11:57:51;;;;;;;9.48;2.80;;;;;26.00;102191.00;;;;5069617;28;20700;-75
2021/07/16 12:00:22;;;;;;;6.80;2.45;;;;;26.10;102189.00;;;;5082639;28;20213;-76
2021/07/16 12:02:49;;;;;;;6.47;2.63;;;;;26.10;102198.00;;;;5085433;28;20195;-77
2021/07/16 12:05:18;;;;;;;8.18;2.50;;;;;26.10;102193.00;;;;5088210;28;20210;-77
2021/07/16 12:07:45;;;;;;;7.10;2.38;;;;;26.20;102198.00;;;;5081588;28;20221;-76
2021/07/16 12:10:15;;;;;;;12.15;2.80;;;;;26.20;102196.00;;;;5073321;28;20236;-75
2021/07/16 12:12:44;;;;;;;9.23;2.50;;;;;26.30;102195.00;;;;5086061;28;20222;-75
2021/07/16 12:15:12;;;;;;;5.97;2.50;;;;;26.40;102197.00;;;;5070264;28;20248;-75